Time;durP1;ratioP1;P1;durP2;ratioP2;P2;SDS_P1;SDS_P2;PMS_P1;PMS_P2;Temp;Humidity;BMP_temperature;BMP_pressure;BME280_temperature;BME280_humidity;BME280_pressure;Samples;Min_cycle;Max_cycle;Signal;HPM_P1;HPM_P2
2023/04/10 00:01:41;;;;;;;0.20;0.20;;;;;;;17.80;37.55;102214.91;5032725;28;20049;-66
2023/04/10 00:04:06;;;;;;;0.20;0.20;;;;;;;17.97;37.24;102204.94;5030038;28;20129;-67
2023/04/10 00:06:32;;;;;;;0.20;0.20;;;;;;;17.66;37.51;102205.34;5029926;28;20125;-67
2023/04/10 00:08:57;;;;;;;0.15;0.15;;;;;;;17.67;37.79;102199.69;5040172;28;20049;-66
2023/04/10 00:11:24;;;;;;;0.20;0.20;;;;;;;17.81;37.75;102206.50;5031450;28;20045;-67
2023/04/10 00:13:49;;;;;;;0.22;0.22;;;;;;;17.45;38.73;102195.91;5049531;28;20037;-67
2023/04/10 00:16:15;;;;;;;0.30;0.30;;;;;;;17.67;37.69;102191.50;5050026;28;20036;-67
2023/04/10 00:18:40;;;;;;;0.10;0.10;;;;;;;17.49;38.06;102188.97;5049279;28;20424;-67
2023/04/10 00:21:06;;;;;;;0.20;0.20;;;;;;;17.51;38.20;102187.63;5029755;28;20397;-67
2023/04/10 00:23:33;;;;;;;0.10;0.10;;;;;;;17.32;38.93;102182.53;5029725;28;20037;-68
2023/04/10 00:25:59;;;;;;;0.10;0.10;;;;;;;17.50;38.53;102186.00;5040339;28;20052;-66
2023/04/10 00:28:24;;;;;;;0.22;0.22;;;;;;;17.58;38.04;102175.81;5036081;28;20033;-66
2023/04/10 00:30:50;;;;;;;0.20;0.20;;;;;;;17.45;38.29;102187.75;5047352;28;20559;-67
2023/04/10 00:33:15;;;;;;;0.30;0.30;;;;;;;17.26;38.71;102181.59;5049908;28;20459;-66
2023/04/10 00:35:40;;;;;;;0.10;0.10;;;;;;;17.27;38.63;102166.13;5031354;28;20124;-66
2023/04/10 00:38:06;;;;;;;0.10;0.10;;;;;;;17.37;38.76;102163.66;5030038;28;20117;-69
2023/04/10 00:40:31;;;;;;;0.10;0.10;;;;;;;17.10;39.42;102155.16;5030771;28;20053;-66
2023/04/10 00:42:57;;;;;;;0.20;0.20;;;;;;;17.26;39.25;102146.28;5030215;28;20041;-67
2023/04/10 00:45:22;;;;;;;0.20;0.20;;;;;;;17.13;39.47;102141.09;5031399;28;20128;-67
2023/04/10 00:47:48;;;;;;;0.15;0.15;;;;;;;17.05;38.77;102140.63;5035250;28;20037;-67
2023/04/10 00:50:13;;;;;;;0.20;0.20;;;;;;;17.14;38.87;102134.59;5035408;28;20515;-66
2023/04/10 00:52:39;;;;;;;0.10;0.10;;;;;;;16.19;40.52;102130.31;5036879;28;20040;-66
2023/04/10 00:55:05;;;;;;;0.20;0.20;;;;;;;16.70;40.02;102124.31;5036719;28;20488;-67
2023/04/10 00:57:32;;;;;;;0.30;0.30;;;;;;;16.88;39.38;102126.09;5036319;28;20401;-68
2023/04/10 00:59:57;;;;;;;0.30;0.30;;;;;;;16.61;39.81;102120.28;5017974;28;20043;-67
2023/04/10 01:02:23;;;;;;;0.20;0.20;;;;;;;16.11;41.15;102114.38;5034723;28;20120;-67
2023/04/10 01:04:48;;;;;;;0.30;0.30;;;;;;;16.67;39.86;102112.03;5033462;28;20114;-66
2023/04/10 01:07:22;;;;;;;0.22;0.22;;;;;;;16.75;39.65;102108.16;5033645;28;20493;-67
2023/04/10 01:09:58;;;;;;;0.20;0.20;;;;;;;16.45;40.00;102108.19;5033046;28;20080;-67
2023/04/10 01:12:57;;;;;;;0.20;0.20;;;;;;;16.81;39.96;102103.66;5032633;28;20033;-68
2023/04/10 01:15:26;;;;;;;0.30;0.30;;;;;;;16.82;39.99;102102.59;5033291;28;20045;-67
2023/04/10 01:18:03;;;;;;;0.30;0.30;;;;;;;16.91;39.75;102103.91;5032985;28;20037;-68
2023/04/10 01:20:31;;;;;;;0.20;0.20;;;;;;;16.83;39.70;102112.41;5052163;28;20044;-66
2023/04/10 01:23:21;;;;;;;0.20;0.20;;;;;;;16.46;40.77;102103.59;5034789;28;20527;-67
2023/04/10 01:25:58;;;;;;;0.20;0.20;;;;;;;16.21;41.22;102102.94;5052867;28;20039;-66
2023/04/10 01:28:45;;;;;;;0.20;0.20;;;;;;;16.59;40.37;102104.22;5053318;28;20036;-65
2023/04/10 01:31:15;;;;;;;0.20;0.20;;;;;;;16.44;40.47;102103.00;5052919;28;20052;-66
2023/04/10 01:33:49;;;;;;;0.30;0.30;;;;;;;16.59;40.46;102095.25;5051173;28;20040;-66
2023/04/10 01:36:21;;;;;;;0.10;0.10;;;;;;;16.40;40.32;102107.22;5033027;28;20511;-66
2023/04/10 01:38:49;;;;;;;0.25;0.25;;;;;;;16.42;40.59;102094.25;5047665;28;20041;-67
2023/04/10 01:41:15;;;;;;;0.20;0.20;;;;;;;16.09;40.94;102100.19;5052535;28;20041;-67
2023/04/10 01:43:42;;;;;;;0.20;0.20;;;;;;;16.38;40.54;102091.19;5053001;28;20021;-70
2023/04/10 01:46:07;;;;;;;0.20;0.20;;;;;;;16.37;40.19;102089.53;5052378;28;20043;-65
2023/04/10 01:48:33;;;;;;;0.20;0.20;;;;;;;16.25;40.70;102090.59;5052380;28;20033;-67
2023/04/10 01:51:02;;;;;;;0.30;0.30;;;;;;;16.54;39.87;102095.16;5033757;28;20056;-66
2023/04/10 01:53:30;;;;;;;0.20;0.20;;;;;;;16.67;39.67;102093.03;5051970;28;20025;-70
2023/04/10 01:55:56;;;;;;;0.10;0.10;;;;;;;16.44;39.95;102092.97;5051888;28;20120;-67
2023/04/10 01:58:21;;;;;;;0.20;0.20;;;;;;;16.55;39.89;102100.34;5052796;28;20037;-67
2023/04/10 02:00:47;;;;;;;0.20;0.20;;;;;;;16.24;40.68;102084.31;5051824;28;20032;-66
2023/04/10 02:03:12;;;;;;;0.20;0.20;;;;;;;16.22;40.63;102081.00;5052042;28;20037;-68
2023/04/10 02:05:47;;;;;;;0.10;0.10;;;;;;;16.05;40.97;102077.31;5051798;28;20044;-67
2023/04/10 02:08:36;;;;;;;0.10;0.10;;;;;;;16.59;40.01;102070.84;5033587;28;20048;-67
2023/04/10 02:11:20;;;;;;;0.10;0.10;;;;;;;16.43;40.33;102071.50;5051949;28;20025;-67
2023/04/10 02:13:48;;;;;;;0.10;0.10;;;;;;;16.15;40.49;102080.28;5051717;28;20025;-66
2023/04/10 02:16:17;;;;;;;0.20;0.20;;;;;;;16.31;40.33;102068.75;5052701;28;20032;-68
2023/04/10 02:18:45;;;;;;;0.38;0.38;;;;;;;16.07;40.93;102061.63;5051274;28;20045;-68
2023/04/10 02:21:11;;;;;;;0.10;0.10;;;;;;;15.94;40.88;102064.53;5051241;28;20132;-66
2023/04/10 02:23:37;;;;;;;0.20;0.20;;;;;;;15.91;41.20;102065.00;5051494;28;20119;-67
2023/04/10 02:26:07;;;;;;;0.20;0.20;;;;;;;16.16;41.28;102072.97;5051161;28;20037;-66
2023/04/10 02:28:32;;;;;;;0.20;0.20;;;;;;;15.72;41.84;102063.41;5052310;28;20033;-66
2023/04/10 02:30:58;;;;;;;0.20;0.20;;;;;;;16.27;40.65;102056.75;5051393;28;20546;-66
2023/04/10 02:33:23;;;;;;;0.13;0.13;;;;;;;16.19;40.75;102056.25;5051495;28;20167;-68
2023/04/10 02:35:48;;;;;;;0.20;0.20;;;;;;;15.92;41.19;102052.28;5032006;28;20121;-67
2023/04/10 02:38:14;;;;;;;0.32;0.32;;;;;;;15.93;41.41;102054.75;5041905;28;20075;-68
2023/04/10 02:40:39;;;;;;;0.10;0.10;;;;;;;16.06;41.40;102046.41;5052097;28;20040;-67
2023/04/10 02:43:05;;;;;;;0.20;0.20;;;;;;;15.87;41.46;102052.97;5051266;28;20443;-68
2023/04/10 02:45:32;;;;;;;0.10;0.10;;;;;;;15.96;41.25;102054.28;5051458;28;20134;-67
2023/04/10 02:47:57;;;;;;;0.17;0.17;;;;;;;15.86;41.27;102054.03;5051102;28;20047;-67
2023/04/10 02:50:23;;;;;;;0.10;0.10;;;;;;;15.92;41.18;102046.88;5051042;28;20029;-66
2023/04/10 02:52:48;;;;;;;0.20;0.20;;;;;;;16.09;40.95;102043.25;5051571;28;20033;-66
2023/04/10 02:55:13;;;;;;;0.20;0.20;;;;;;;15.66;41.99;102050.78;5051830;28;20032;-67
2023/04/10 02:57:41;;;;;;;0.25;0.25;;;;;;;15.76;41.90;102045.63;5051096;28;20040;-67
2023/04/10 03:00:07;;;;;;;0.15;0.15;;;;;;;15.90;41.48;102046.25;5033110;28;20029;-67
2023/04/10 03:02:32;;;;;;;0.22;0.22;;;;;;;15.91;41.67;102047.91;5050828;28;20085;-67
2023/04/10 03:05:00;;;;;;;0.10;0.10;;;;;;;15.40;42.85;102051.06;5050523;28;20558;-67
2023/04/10 03:07:26;;;;;;;0.10;0.10;;;;;;;15.80;42.16;102047.63;5032838;28;20037;-67
2023/04/10 03:09:51;;;;;;;0.10;0.10;;;;;;;15.85;41.72;102046.94;5050400;28;20033;-67
2023/04/10 03:12:17;;;;;;;0.10;0.10;;;;;;;15.37;42.95;102051.53;5050739;28;20120;-66
2023/04/10 03:14:42;;;;;;;0.30;0.30;;;;;;;16.17;40.85;102044.81;5050960;28;20032;-67
2023/04/10 03:17:07;;;;;;;0.20;0.20;;;;;;;16.06;41.04;102037.47;5051154;28;20037;-67
2023/04/10 03:19:33;;;;;;;0.20;0.20;;;;;;;15.89;41.64;102050.84;5051090;28;20060;-67
2023/04/10 03:21:58;;;;;;;0.20;0.20;;;;;;;16.01;41.44;102059.84;5050285;28;20219;-67
2023/04/10 03:24:23;;;;;;;0.13;0.13;;;;;;;15.90;41.62;102051.69;5050726;28;20187;-66
2023/04/10 03:26:49;;;;;;;0.10;0.10;;;;;;;16.30;40.98;102050.84;5050756;28;20457;-66
2023/04/10 03:29:17;;;;;;;0.10;0.10;;;;;;;16.19;40.96;102053.53;5050462;28;20097;-67
2023/04/10 03:31:43;;;;;;;0.10;0.10;;;;;;;15.87;41.61;102042.13;5050458;28;20037;-67
2023/04/10 03:34:08;;;;;;;0.10;0.10;;;;;;;15.81;41.86;102032.19;5045860;28;20389;-67
2023/04/10 03:36:34;;;;;;;0.10;0.10;;;;;;;15.77;41.90;102041.84;5030480;28;20489;-66
2023/04/10 03:38:59;;;;;;;0.20;0.20;;;;;;;15.65;42.51;102038.25;5030713;28;20498;-67
2023/04/10 03:41:25;;;;;;;0.10;0.10;;;;;;;15.99;41.46;102042.16;5030624;28;20049;-67
2023/04/10 03:43:50;;;;;;;0.28;0.28;;;;;;;16.20;41.58;102041.59;5030203;28;20063;-67
2023/04/10 03:46:16;;;;;;;0.22;0.22;;;;;;;16.13;41.48;102041.72;5033718;28;20114;-67
2023/04/10 03:48:41;;;;;;;0.20;0.20;;;;;;;16.16;41.46;102045.84;5043666;28;20053;-66
2023/04/10 03:51:06;;;;;;;0.20;0.20;;;;;;;16.40;40.95;102040.25;5049703;28;20037;-68
2023/04/10 03:53:34;;;;;;;0.20;0.20;;;;;;;16.45;40.27;102040.34;5050109;28;20638;-66
2023/04/10 03:56:01;;;;;;;0.28;0.28;;;;;;;16.38;41.11;102034.22;5032697;28;20035;-67
2023/04/10 03:58:26;;;;;;;0.10;0.10;;;;;;;16.56;40.50;102036.03;5050535;28;20025;-67
2023/04/10 04:00:51;;;;;;;0.10;0.10;;;;;;;16.29;40.88;102032.94;5048844;28;20043;-66
2023/04/10 04:03:17;;;;;;;0.20;0.20;;;;;;;16.34;40.96;102027.63;5031320;28;20126;-65
2023/04/10 04:05:42;;;;;;;0.20;0.20;;;;;;;16.45;40.86;102025.97;5049453;28;20044;-67
2023/04/10 04:08:07;;;;;;;0.10;0.10;;;;;;;16.42;40.77;102023.72;5031466;28;20463;-65
2023/04/10 04:10:33;;;;;;;0.30;0.30;;;;;;;16.07;41.92;102020.13;5050216;28;20561;-67
2023/04/10 04:12:58;;;;;;;0.17;0.17;;;;;;;16.29;41.07;102016.66;5049427;28;20156;-66
2023/04/10 04:15:23;;;;;;;0.30;0.30;;;;;;;16.31;40.74;102014.50;5049608;28;20116;-66
2023/04/10 04:17:49;;;;;;;0.20;0.20;;;;;;;16.23;41.31;102014.03;5049862;28;20055;-65
2023/04/10 04:20:15;;;;;;;0.20;0.20;;;;;;;15.73;42.20;102013.56;5050401;28;20049;-67
2023/04/10 04:22:41;;;;;;;0.10;0.10;;;;;;;16.11;41.41;102008.59;5054179;28;20032;-67
2023/04/10 04:25:09;;;;;;;0.10;0.10;;;;;;;16.24;40.82;102002.94;5053658;28;20032;-66
2023/04/10 04:27:35;;;;;;;0.20;0.20;;;;;;;16.13;41.52;102006.47;5053671;28;20041;-66
2023/04/10 04:30:01;;;;;;;0.20;0.20;;;;;;;15.94;42.12;102001.38;5053616;28;20508;-66
2023/04/10 04:32:27;;;;;;;0.22;0.22;;;;;;;15.54;42.58;102007.38;5053791;28;20048;-67
2023/04/10 04:34:52;;;;;;;0.20;0.20;;;;;;;15.67;42.62;102001.75;5042396;28;20140;-67
2023/04/10 04:37:17;;;;;;;0.20;0.20;;;;;;;15.74;42.12;102002.47;5034323;28;20028;-67
2023/04/10 04:39:43;;;;;;;0.10;0.10;;;;;;;16.11;41.41;102002.34;5015874;28;20601;-66
2023/04/10 04:42:08;;;;;;;0.28;0.28;;;;;;;15.89;41.52;101995.81;5053381;28;20480;-66
2023/04/10 04:44:34;;;;;;;0.30;0.30;;;;;;;16.00;41.44;102000.44;5053750;28;20040;-69
2023/04/10 04:46:59;;;;;;;0.20;0.20;;;;;;;15.87;41.76;101998.75;5053558;28;20090;-68
2023/04/10 04:49:25;;;;;;;0.20;0.20;;;;;;;15.89;41.97;102003.94;5053716;28;20037;-67
2023/04/10 04:51:50;;;;;;;0.35;0.35;;;;;;;15.96;41.56;102005.47;5053254;28;20033;-67
2023/04/10 04:54:15;;;;;;;0.20;0.20;;;;;;;16.06;41.33;102003.03;5045588;28;20098;-67
2023/04/10 04:56:41;;;;;;;0.20;0.20;;;;;;;16.14;40.55;101997.25;5052873;28;20033;-68
2023/04/10 04:59:06;;;;;;;0.20;0.20;;;;;;;15.82;41.53;101993.22;5053063;28;20063;-67
2023/04/10 05:01:32;;;;;;;0.10;0.10;;;;;;;15.58;42.00;101999.59;5048500;28;20039;-66
2023/04/10 05:03:57;;;;;;;0.20;0.20;;;;;;;15.69;41.89;101998.81;5047690;28;20382;-67
2023/04/10 05:06:22;;;;;;;0.38;0.38;;;;;;;15.66;42.17;102002.78;5052745;28;20044;-66
2023/04/10 05:08:48;;;;;;;0.20;0.20;;;;;;;15.76;41.86;101983.28;5052922;28;20410;-66
2023/04/10 05:11:13;;;;;;;0.20;0.20;;;;;;;15.89;41.09;101985.78;5053126;28;20084;-66
2023/04/10 05:13:39;;;;;;;0.20;0.20;;;;;;;16.03;41.08;101983.69;5038106;28;20083;-67
2023/04/10 05:16:05;;;;;;;0.30;0.30;;;;;;;15.72;41.88;101979.38;5055053;28;20512;-66
2023/04/10 05:18:30;;;;;;;0.10;0.10;;;;;;;16.20;41.16;101973.81;5037258;28;20033;-67
2023/04/10 05:20:55;;;;;;;0.10;0.10;;;;;;;15.71;41.43;101980.44;5055453;28;20055;-68
2023/04/10 05:23:21;;;;;;;0.10;0.10;;;;;;;15.92;41.72;101981.78;5041571;28;20143;-67
2023/04/10 05:25:46;;;;;;;0.20;0.20;;;;;;;15.81;42.06;101980.69;5050629;28;20057;-68
2023/04/10 05:28:11;;;;;;;0.15;0.15;;;;;;;15.44;42.91;101977.28;5032944;28;20077;-68
2023/04/10 05:30:37;;;;;;;0.22;0.22;;;;;;;15.84;41.89;101972.91;5039868;28;20133;-68
2023/04/10 05:33:02;;;;;;;0.22;0.22;;;;;;;15.98;41.50;101976.25;5040934;28;20626;-68
2023/04/10 05:35:27;;;;;;;0.30;0.30;;;;;;;15.87;41.73;101984.38;5028847;28;20037;-67
2023/04/10 05:37:53;;;;;;;0.10;0.10;;;;;;;16.08;41.23;101986.56;5035854;28;20536;-68
2023/04/10 05:40:19;;;;;;;0.20;0.20;;;;;;;16.20;41.05;101990.91;5047988;28;20041;-67
2023/04/10 05:42:45;;;;;;;0.20;0.20;;;;;;;16.15;40.57;101984.53;5041432;28;20033;-69
2023/04/10 05:45:10;;;;;;;0.20;0.20;;;;;;;16.18;41.06;101978.63;5040286;28;20518;-66
2023/04/10 05:47:36;;;;;;;0.10;0.10;;;;;;;16.30;41.06;101983.03;5047842;28;20128;-69
2023/04/10 05:50:01;;;;;;;0.30;0.30;;;;;;;16.53;40.45;101980.34;5035976;28;20199;-67
2023/04/10 05:52:26;;;;;;;0.20;0.20;;;;;;;16.35;40.68;101976.91;5046383;28;20392;-67
2023/04/10 05:54:52;;;;;;;0.20;0.20;;;;;;;15.98;41.47;101968.13;5041810;28;20092;-66
2023/04/10 05:57:17;;;;;;;0.20;0.20;;;;;;;16.02;41.43;101976.63;5051876;28;20116;-68
2023/04/10 05:59:42;;;;;;;0.30;0.30;;;;;;;16.24;40.87;101977.69;5035086;28;20069;-68
2023/04/10 06:02:08;;;;;;;0.13;0.13;;;;;;;16.39;40.69;101975.38;5030005;28;20117;-67
2023/04/10 06:04:33;;;;;;;0.20;0.20;;;;;;;16.06;41.57;101975.91;5039534;28;20067;-68
2023/04/10 06:06:58;;;;;;;0.20;0.20;;;;;;;16.68;39.95;101975.28;5022473;28;20128;-69
2023/04/10 06:09:24;;;;;;;0.10;0.10;;;;;;;16.81;39.47;101962.47;5046099;28;20041;-66
2023/04/10 06:11:49;;;;;;;0.10;0.10;;;;;;;16.60;40.15;101963.94;5035170;28;20099;-67
2023/04/10 06:14:18;;;;;;;0.20;0.20;;;;;;;16.63;40.85;101964.28;5046740;28;20523;-67
2023/04/10 06:16:44;;;;;;;0.10;0.10;;;;;;;16.80;39.83;101960.84;5040424;28;20033;-67
2023/04/10 06:19:09;;;;;;;0.20;0.20;;;;;;;16.04;42.03;101964.47;5039426;28;20521;-68
2023/04/10 06:21:35;;;;;;;0.20;0.20;;;;;;;16.81;40.48;101959.75;5031311;28;20048;-66
2023/04/10 06:24:01;;;;;;;0.20;0.20;;;;;;;16.36;41.03;101959.53;5031373;28;20551;-67
2023/04/10 06:26:26;;;;;;;0.10;0.10;;;;;;;15.95;42.32;101954.22;5031663;28;20057;-67
2023/04/10 06:28:51;;;;;;;0.15;0.15;;;;;;;16.49;41.43;101951.22;5031614;28;20477;-66
2023/04/10 06:31:20;;;;;;;0.20;0.20;;;;;;;16.96;39.85;101933.75;5031851;28;20022;-66
2023/04/10 06:33:46;;;;;;;0.20;0.20;;;;;;;16.75;40.63;101928.97;5011299;28;20034;-66
2023/04/10 06:36:12;;;;;;;0.20;0.20;;;;;;;16.73;41.09;101925.69;5025154;28;20103;-68
2023/04/10 06:38:37;;;;;;;0.28;0.28;;;;;;;16.55;41.88;101926.66;5009765;28;20485;-66
2023/04/10 06:41:06;;;;;;;0.10;0.10;;;;;;;16.31;42.27;101927.69;5024238;28;20391;-67
2023/04/10 06:43:33;;;;;;;0.20;0.20;;;;;;;16.71;40.70;101916.94;5022406;28;20091;-66
2023/04/10 06:45:59;;;;;;;0.20;0.20;;;;;;;16.86;40.78;101919.16;5024644;28;20034;-68
2023/04/10 06:48:24;;;;;;;0.20;0.20;;;;;;;17.52;39.49;101913.97;5024023;28;20520;-67
2023/04/10 06:50:50;;;;;;;0.20;0.20;;;;;;;17.01;39.75;101912.16;5025379;28;20045;-66
2023/04/10 06:53:15;;;;;;;0.10;0.10;;;;;;;16.85;40.18;101915.63;5023134;28;20489;-68
2023/04/10 06:55:41;;;;;;;0.17;0.17;;;;;;;17.44;39.49;101907.00;5023903;28;20474;-68
2023/04/10 06:58:06;;;;;;;0.20;0.20;;;;;;;16.90;40.25;101904.03;5021779;28;20179;-68
2023/04/10 07:00:31;;;;;;;0.20;0.20;;;;;;;17.48;39.05;101901.91;5021461;28;20476;-68
2023/04/10 07:02:57;;;;;;;0.10;0.10;;;;;;;17.79;39.27;101901.38;5021609;28;20086;-66
2023/04/10 07:05:22;;;;;;;0.38;0.38;;;;;;;17.78;39.45;101897.03;5021629;28;20034;-67
2023/04/10 07:07:49;;;;;;;0.28;0.28;;;;;;;17.52;39.28;101889.50;5024032;28;20495;-67
2023/04/10 07:10:15;;;;;;;0.17;0.17;;;;;;;17.71;39.31;101882.75;5024943;28;20029;-67
2023/04/10 07:12:40;;;;;;;0.17;0.17;;;;;;;17.95;38.74;101875.25;5019064;28;20040;-67
2023/04/10 07:15:06;;;;;;;0.10;0.10;;;;;;;18.02;38.58;101874.03;5024317;28;20121;-66
2023/04/10 07:17:32;;;;;;;0.20;0.20;;;;;;;18.35;38.43;101871.25;5021395;28;20038;-66
2023/04/10 07:19:57;;;;;;;0.20;0.20;;;;;;;18.70;37.48;101861.91;5037514;28;20045;-66
2023/04/10 07:22:23;;;;;;;0.10;0.10;;;;;;;18.96;36.99;101859.22;5049488;28;20033;-66
2023/04/10 07:24:48;;;;;;;0.30;0.30;;;;;;;18.85;36.72;101846.56;5049196;28;20033;-66
2023/04/10 07:27:14;;;;;;;0.15;0.15;;;;;;;18.67;37.14;101840.63;5049321;28;20045;-69
2023/04/10 07:29:39;;;;;;;0.10;0.10;;;;;;;18.73;37.44;101843.13;5049339;28;20075;-67
2023/04/10 07:32:05;;;;;;;0.20;0.20;;;;;;;18.34;37.26;101834.19;5048920;28;20048;-67
2023/04/10 07:34:31;;;;;;;0.20;0.20;;;;;;;18.83;36.92;101837.00;5031371;28;20029;-68
2023/04/10 07:36:56;;;;;;;0.25;0.25;;;;;;;18.40;37.93;101819.56;5047737;28;20386;-68
2023/04/10 07:39:21;;;;;;;0.28;0.28;;;;;;;17.94;38.26;101816.50;5058433;28;20404;-66
2023/04/10 07:41:47;;;;;;;0.10;0.10;;;;;;;18.89;36.30;101806.84;5057509;28;20534;-67
2023/04/10 07:44:13;;;;;;;0.20;0.20;;;;;;;19.18;36.21;101810.13;5057882;28;20055;-66
2023/04/10 07:46:39;;;;;;;0.20;0.20;;;;;;;19.07;37.01;101801.03;5057317;28;20583;-67
2023/04/10 07:49:04;;;;;;;0.10;0.10;;;;;;;19.47;36.14;101810.69;5058452;28;20048;-68
2023/04/10 07:51:30;;;;;;;0.10;0.10;;;;;;;19.92;35.45;101803.66;5056904;28;20115;-67
2023/04/10 07:53:56;;;;;;;0.10;0.10;;;;;;;19.91;35.64;101799.25;5055029;28;20048;-66
2023/04/10 07:56:22;;;;;;;0.20;0.20;;;;;;;20.62;34.52;101791.41;5057397;28;20045;-66
2023/04/10 07:58:47;;;;;;;0.10;0.10;;;;;;;19.44;36.19;101792.13;5056826;28;20014;-66
2023/04/10 08:01:13;;;;;;;0.10;0.10;;;;;;;19.80;35.70;101788.56;5057992;28;20030;-69
2023/04/10 08:03:41;;;;;;;0.10;0.10;;;;;;;20.53;34.73;101785.69;5058773;28;20492;-67
2023/04/10 08:06:08;;;;;;;0.10;0.10;;;;;;;19.96;34.56;101784.84;5056366;28;20401;-66
2023/04/10 08:08:38;;;;;;;0.20;0.20;;;;;;;19.79;35.31;101789.66;5037037;28;20067;-67
2023/04/10 08:11:07;;;;;;;0.10;0.10;;;;;;;20.97;33.86;101780.59;5059427;28;20048;-66
2023/04/10 08:13:32;;;;;;;0.20;0.20;;;;;;;20.31;33.87;101781.47;5058464;28;20020;-66
2023/04/10 08:15:59;;;;;;;0.10;0.10;;;;;;;20.72;33.59;101781.34;5057824;28;20333;-69
2023/04/10 08:18:24;;;;;;;0.20;0.20;;;;;;;20.93;33.33;101774.03;5055502;28;20056;-67
2023/04/10 08:20:49;;;;;;;0.15;0.15;;;;;;;21.15;32.96;101771.88;5037709;28;20037;-66
2023/04/10 08:23:15;;;;;;;0.10;0.10;;;;;;;20.93;33.80;101766.63;5044803;28;20060;-67
2023/04/10 08:25:40;;;;;;;0.20;0.20;;;;;;;20.80;33.85;101756.25;5040550;28;20404;-65
2023/04/10 08:28:05;;;;;;;0.20;0.20;;;;;;;20.99;33.44;101756.56;5040685;28;20033;-67
2023/04/10 08:30:31;;;;;;;0.20;0.20;;;;;;;20.21;33.78;101752.25;5039369;28;20079;-68
2023/04/10 08:32:56;;;;;;;0.10;0.10;;;;;;;20.70;33.62;101753.50;5035993;28;20035;-67
2023/04/10 08:35:22;;;;;;;0.30;0.30;;;;;;;20.97;33.18;101750.53;5041876;28;20041;-68
2023/04/10 08:37:47;;;;;;;0.17;0.17;;;;;;;19.30;34.61;101765.25;5040920;28;20017;-66
2023/04/10 08:40:12;;;;;;;0.10;0.10;;;;;;;19.81;33.83;101754.75;5043184;28;20017;-67
2023/04/10 08:42:38;;;;;;;0.10;0.10;;;;;;;20.41;33.10;101746.03;5036926;28;20021;-67
2023/04/10 08:45:04;;;;;;;0.10;0.10;;;;;;;21.09;32.12;101753.84;5044877;28;20053;-66
2023/04/10 08:47:36;;;;;;;0.13;0.13;;;;;;;20.38;33.53;101752.88;5038140;28;20116;-67
2023/04/10 08:50:05;;;;;;;0.10;0.10;;;;;;;21.46;31.94;101751.63;5040204;28;20048;-70
2023/04/10 08:52:34;;;;;;;0.10;0.10;;;;;;;21.31;32.35;101746.19;5041731;28;20041;-68
2023/04/10 08:55:04;;;;;;;0.20;0.20;;;;;;;20.91;33.71;101735.22;5037775;28;20179;-66
2023/04/10 08:57:31;;;;;;;0.10;0.10;;;;;;;21.49;32.52;101736.59;5042780;28;20284;-66
2023/04/10 08:59:57;;;;;;;0.10;0.10;;;;;;;21.88;31.29;101734.09;5036720;28;20083;-67
2023/04/10 09:02:23;;;;;;;0.20;0.20;;;;;;;21.03;32.43;101721.31;5033226;28;20049;-67
2023/04/10 09:04:51;;;;;;;0.20;0.20;;;;;;;21.24;32.27;101717.50;5038103;28;20024;-66
2023/04/10 09:07:17;;;;;;;0.10;0.10;;;;;;;21.53;32.13;101713.06;5046779;28;20021;-67
2023/04/10 09:09:43;;;;;;;0.20;0.20;;;;;;;21.01;32.35;101718.88;5048127;28;20037;-67
2023/04/10 09:12:09;;;;;;;0.10;0.10;;;;;;;20.75;32.04;101706.25;5035605;28;20047;-66
2023/04/10 09:14:36;;;;;;;0.13;0.13;;;;;;;21.06;32.75;101707.09;5035091;28;20034;-70
2023/04/10 09:17:20;;;;;;;0.20;0.20;;;;;;;21.52;31.85;101712.25;5039974;28;20079;-64
2023/04/10 09:19:49;;;;;;;0.10;0.10;;;;;;;21.34;31.95;101714.75;5033045;28;20561;-66
2023/04/10 09:22:15;;;;;;;0.10;0.10;;;;;;;20.74;33.01;101718.25;5044268;28;20052;-65
2023/04/10 09:24:42;;;;;;;0.20;0.20;;;;;;;20.24;33.52;101712.69;5036980;28;20033;-65
2023/04/10 09:27:08;;;;;;;0.10;0.10;;;;;;;21.16;32.11;101713.41;5047766;28;20550;-66
2023/04/10 09:29:44;;;;;;;0.10;0.10;;;;;;;21.24;32.37;101710.13;5048858;28;20037;-65
2023/04/10 09:32:11;;;;;;;0.15;0.15;;;;;;;22.35;31.41;101704.31;5030870;28;20042;-66
2023/04/10 09:34:52;;;;;;;0.10;0.10;;;;;;;22.76;30.93;101700.22;5031059;28;20038;-66
2023/04/10 09:37:19;;;;;;;0.10;0.10;;;;;;;21.88;31.56;101693.06;5035510;28;20124;-66
2023/04/10 09:39:45;;;;;;;0.17;0.17;;;;;;;21.80;31.12;101680.72;5024332;28;20033;-65
2023/04/10 09:42:11;;;;;;;0.10;0.10;;;;;;;22.52;30.88;101663.66;5015948;28;20033;-67
2023/04/10 09:44:39;;;;;;;0.10;0.10;;;;;;;22.02;31.17;101666.69;5039867;28;20029;-66
2023/04/10 09:47:20;;;;;;;0.20;0.20;;;;;;;22.48;30.54;101663.44;5040045;28;20192;-66
2023/04/10 09:49:47;;;;;;;0.10;0.10;;;;;;;21.97;30.57;101656.59;5036685;28;20107;-67
2023/04/10 09:52:30;;;;;;;0.10;0.10;;;;;;;22.79;30.73;101647.59;5044351;28;20052;-66
2023/04/10 09:55:00;;;;;;;0.10;0.10;;;;;;;22.63;30.49;101648.81;5032508;28;20525;-66
2023/04/10 09:57:29;;;;;;;0.10;0.10;;;;;;;22.23;30.90;101640.88;5042386;28;20049;-68
2023/04/10 09:59:56;;;;;;;0.10;0.10;;;;;;;22.03;31.64;101632.75;5041743;28;20400;-66
2023/04/10 10:02:25;;;;;;;0.10;0.10;;;;;;;22.55;30.15;101630.22;5037958;28;20545;-68
2023/04/10 10:04:51;;;;;;;0.10;0.10;;;;;;;22.97;29.93;101629.63;5040768;28;20039;-67
2023/04/10 10:07:21;;;;;;;0.10;0.10;;;;;;;22.33;31.08;101630.66;5039505;28;20401;-66
2023/04/10 10:09:48;;;;;;;0.10;0.10;;;;;;;22.64;30.12;101623.06;5036159;28;20029;-67
2023/04/10 10:12:16;;;;;;;0.10;0.10;;;;;;;22.52;30.46;101622.59;5041073;28;20470;-67
2023/04/10 10:15:13;;;;;;;0.10;0.10;;;;;;;22.34;30.62;101602.16;5040901;28;20033;-66
2023/04/10 10:18:05;;;;;;;0.17;0.17;;;;;;;21.21;31.87;101604.03;5035507;28;20596;-68
2023/04/10 10:20:33;;;;;;;0.10;0.10;;;;;;;22.11;30.99;101611.06;5026599;28;20041;-67
2023/04/10 10:23:02;;;;;;;0.10;0.10;;;;;;;22.43;30.81;101608.66;5046472;28;20047;-66
2023/04/10 10:25:28;;;;;;;0.20;0.20;;;;;;;22.77;30.38;101591.44;5044755;28;20028;-67
2023/04/10 10:27:54;;;;;;;0.00;0.00;;;;;;;22.13;30.78;101586.16;5046999;28;20029;-67
2023/04/10 10:30:21;;;;;;;0.10;0.10;;;;;;;22.17;31.40;101577.06;5046466;28;20041;-65
2023/04/10 10:32:48;;;;;;;0.10;0.10;;;;;;;22.78;30.01;101579.38;5046735;28;20037;-69
2023/04/10 10:35:15;;;;;;;0.10;0.10;;;;;;;22.16;31.04;101580.09;5043953;28;20129;-67
2023/04/10 10:37:44;;;;;;;0.10;0.10;;;;;;;22.31;30.93;101571.81;5047281;28;20060;-68
2023/04/10 10:40:28;;;;;;;0.10;0.10;;;;;;;23.09;30.66;101565.06;5028451;28;20166;-68
2023/04/10 10:43:16;;;;;;;0.10;0.10;;;;;;;24.10;29.16;101545.41;5046586;28;20043;-66
2023/04/10 10:45:56;;;;;;;0.10;0.10;;;;;;;23.67;30.07;101553.97;5046409;28;20370;-68
2023/04/10 10:48:21;;;;;;;0.10;0.10;;;;;;;23.46;29.65;101548.75;5046294;28;20036;-67
2023/04/10 10:50:57;;;;;;;0.10;0.10;;;;;;;23.24;30.36;101542.97;5046072;28;20033;-67
2023/04/10 10:53:36;;;;;;;0.10;0.10;;;;;;;24.37;29.29;101540.03;5044735;28;20128;-68
2023/04/10 10:56:19;;;;;;;0.10;0.10;;;;;;;23.82;30.21;101527.13;5045505;28;20052;-66
2023/04/10 10:58:46;;;;;;;0.90;0.17;;;;;;;23.90;29.51;101529.19;5044357;28;20120;-67
2023/04/10 11:01:11;;;;;;;0.10;0.10;;;;;;;23.30;29.92;101516.28;5045868;28;20508;-67
2023/04/10 11:03:37;;;;;;;0.10;0.10;;;;;;;23.68;30.34;101507.03;5045639;28;20033;-68
2023/04/10 11:06:06;;;;;;;0.10;0.10;;;;;;;23.14;30.76;101503.84;5045604;28;20037;-67
2023/04/10 11:08:31;;;;;;;0.10;0.10;;;;;;;23.88;28.76;101503.19;5045194;28;20037;-67
2023/04/10 11:11:05;;;;;;;0.05;0.05;;;;;;;22.74;31.06;101490.63;5045408;28;20640;-67
2023/04/10 11:13:32;;;;;;;0.10;0.10;;;;;;;22.79;31.12;101493.28;5046570;28;20452;-67
2023/04/10 11:15:59;;;;;;;0.10;0.10;;;;;;;23.21;30.06;101496.91;5045826;28;20129;-67
2023/04/10 11:18:43;;;;;;;0.10;0.10;;;;;;;23.61;30.22;101489.28;5045102;28;20036;-67
2023/04/10 11:21:13;;;;;;;0.10;0.10;;;;;;;23.15;31.35;101491.78;5044259;28;20513;-67
2023/04/10 11:23:54;;;;;;;0.10;0.10;;;;;;;23.15;30.71;101487.13;5044816;28;20422;-66
2023/04/10 11:26:32;;;;;;;0.10;0.10;;;;;;;23.48;30.18;101480.69;5042220;28;20033;-67